Terminal Aerodrome Forecast
Issued by NWS Sterling, VA

Home | Current Version | Previous Version | Text Only | Print | Product List | Glossary On
Versions: 1 2 3 4 5 6 7 8 9 10 11 12 13 14 15 16 17 18 19 20 21
786
FTUS41 KLWX 241129
TAFIAD
TAF
KIAD 241129Z 2412/2518 02004KT P6SM FEW250
     FM241600 VRB04KT P6SM SCT050
     FM250600 VRB03KT P6SM SCT250
     FM250900 VRB03KT 5SM BR SCT200
     FM251200 VRB03KT P6SM SCT150
     FM251500 26005KT P6SM SCT050=

USA.gov is the U.S. government's official web portal to all federal, state and local government web resources and services.